Data for 06/17/2006

Time Sea-Level Adjusted Pressure Absolute Pressure Temperature Relative Humidity Dew Point   
(mb) (inHg) (mb) (inHg) (C) (F) (%) (C) (F)
00:05 1016 30 846 24.98 14 57.2 51 4.1 39.3
00:10 1016 30 846 24.98 14 57.1 51 4 39.2
00:15 1017 30.03 846 24.98 13.9 57 51 4 39.3
00:20 1017 30.03 846 24.98 14 57.2 50 3.9 39
00:25 1017 30.03 846 24.98 14.1 57.3 53 4.6 40.3
00:30 1017 30.03 846 24.98 14 57.3 51 4.3 39.7
00:35 1017 30.03 846 24.98 14 57.1 53 4.6 40.2
00:40 1017 30.03 846 24.98 14 57.2 56 5.5 41.9
00:45 1017 30.03 846 24.98 13.8 56.8 56 5.3 41.5
00:50 1017 30.03 846 24.98 13.7 56.6 54 4.7 40.4
00:55 1017 30.03 846 24.98 13.7 56.7 54 4.7 40.5
01:00 1017 30.03 846 24.98 13.8 56.9 55 5.1 41.2
01:05 1017 30.03 846 24.98 13.7 56.6 55 4.8 40.6
01:10 1017 30.03 846 24.98 14.1 57.3 56 5.5 41.8
01:15 1017 30.03 846 24.98 14.2 57.6 58 6.1 42.9
01:20 1017 30.03 846 24.98 14.1 57.3 59 6.3 43.4
01:25 1017 30.03 846 24.98 13.8 56.8 65 7.3 45.2
01:30 1017 30.03 846 24.98 13.6 56.5 66 7.4 45.2
01:35 1017 30.03 846 24.98 13.2 55.7 68 7.4 45.4
01:40 1017 30.03 846 24.98 12.5 54.5 76 8.4 47.2
01:45 1017 30.03 846 24.98 12.6 54.7 69 7 44.7
01:50 1017 30.03 846 24.98 12.9 55.2 69 7.4 45.3
01:55 1017 30.03 846 24.98 13.1 55.5 72 8.2 46.8
02:00 1017 30.03 846 24.98 12.9 55.2 73 8.2 46.8
02:05 1017 30.03 846 24.98 12.9 55.2 69 7.5 45.5
02:10 1017 30.03 847 25.01 12.9 55.2 70 7.6 45.7
02:15 1017 30.03 847 25.01 12.9 55.3 73 8.3 47
02:20 1017 30.03 847 25.01 13 55.5 69 7.6 45.7
02:25 1017 30.03 847 25.01 13 55.5 67 7.2 44.9
02:30 1017 30.03 847 25.01 13.1 55.5 67 7 44.6
02:35 1017 30.03 847 25.01 13.1 55.6 69 7.5 45.5
02:40 1018 30.06 847 25.01 12.8 55 70 7.5 45.5
02:45 1018 30.06 847 25.01 12.5 54.4 69 7 44.5
02:50 1018 30.06 847 25.01 12.5 54.6 70 7.3 45.1
02:55 1018 30.06 847 25.01 12.4 54.2 71 7.2 45
03:00 1017 30.03 847 25.01 12.3 54.1 72 7.3 45.2
03:05 1017 30.03 847 25.01 12.2 53.9 78 8.4 47.2
03:10 1018 30.06 847 25.01 12.1 53.7 76 7.9 46.3
03:15 1018 30.06 847 25.01 12 53.6 75 7.7 45.9
03:20 1018 30.06 847 25.01 11.9 53.4 75 7.6 45.6
03:25 1018 30.06 847 25.01 11.7 53.1 74 7.3 45.2
03:30 1018 30.06 847 25.01 11.6 52.8 75 7.3 45.2
03:35 1018 30.06 847 25.01 11.5 52.7 75 7.2 44.9
03:40 1018 30.06 847 25.01 11.9 53.4 74 7.4 45.3
03:45 1018 30.06 847 25.01 12.2 54 73 7.5 45.6
03:50 1018 30.06 847 25.01 12.3 54.2 70 7.1 44.7
03:55 1018 30.06 847 25.01 12.3 54.1 70 7 44.6
04:00 1018 30.06 847 25.01 12.2 53.9 70 7 44.6
04:05 1018 30.06 848 25.04 12.1 53.7 72 7.1 44.8
04:10 1018 30.06 848 25.04 11.9 53.4 74 7.5 45.5
04:15 1019 30.09 848 25.04 11.6 52.9 79 8.1 46.7
04:20 1019 30.09 848 25.04 11.4 52.4 80 8.1 46.6
04:25 1019 30.09 848 25.04 11.2 52.1 81 8 46.5
04:30 1019 30.09 848 25.04 11.1 51.9 84 8.4 47.2
04:35 1019 30.09 848 25.04 11 51.8 82 8.1 46.6
04:40 1019 30.09 848 25.04 11 51.9 81 7.9 46.2
04:45 1019 30.09 848 25.04 11.2 52.1 79 7.7 45.8
04:50 1019 30.09 848 25.04 11.3 52.3 80 8 46.4
04:55 1019 30.09 848 25.04 11.3 52.3 79 7.8 46.1
05:00 1019 30.09 848 25.04 11.1 51.9 81 8 46.4
05:05 1019 30.09 848 25.04 10.7 51.2 83 7.9 46.3
05:10 1019 30.09 848 25.04 10.5 51 83 7.8 46
05:15 1019 30.09 848 25.04 10.6 51 84 8 46.4
05:20 1019 30.09 849 25.07 10.5 51 84 8 46.4
05:25 1019 30.09 849 25.07 10.5 50.9 85 8.1 46.6
05:30 1019 30.09 849 25.07 10.3 50.5 87 8.1 46.7
05:35 1019 30.09 849 25.07 10.4 50.7 85 8 46.4
05:40 1019 30.09 849 25.07 10.6 51 82 7.7 45.8
05:45 1019 30.09 849 25.07 10.5 50.9 80 7.2 44.9
05:50 1019 30.09 849 25.07 10.6 51 78 6.9 44.5
05:55 1019 30.09 849 25.07 10.8 51.4 80 7.5 45.4
06:00 1019 30.09 849 25.07 10.8 51.4 82 7.9 46.2
06:05 1019 30.09 849 25.07 10.6 51.1 82 7.7 45.9
06:10 1019 30.09 849 25.07 10.6 51.1 81 7.5 45.5
06:15 1019 30.09 849 25.07 11.1 52 76 7.1 44.8
06:20 1019 30.09 849 25.07 11.7 53 75 7.5 45.5
06:25 1019 30.09 849 25.07 11.6 52.8 77 7.8 46
06:30 1019 30.09 849 25.07 11.7 53 77 7.7 45.9
06:35 1020 30.12 849 25.07 11.9 53.5 76 7.9 46.2
06:40 1019 30.09 849 25.07 11.9 53.4 72 7.1 44.8
06:45 1020 30.12 849 25.07 12 53.6 71 7 44.5
06:50 1020 30.12 849 25.07 12.3 54.1 72 7.3 45.2
06:55 1019 30.09 849 25.07 12.4 54.3 73 7.7 45.8
07:00 1019 30.09 849 25.07 12.3 54.2 69 6.9 44.4
07:05 1019 30.09 849 25.07 12.2 53.9 75 7.9 46.2
07:10 1019 30.09 849 25.07 12.2 53.9 74 7.7 45.9
07:15 1019 30.09 849 25.07 12.7 54.8 74 8.1 46.6
07:20 1020 30.12 849 25.07 12.6 54.7 74 8.2 46.7
07:25 1020 30.12 849 25.07 12.9 55.1 70 7.6 45.7
07:30 1020 30.12 849 25.07 13.3 56 65 6.9 44.3
07:35 1020 30.12 849 25.07 13.8 56.9 64 7.1 44.8
07:40 1019 30.09 849 25.07 14.2 57.6 61 6.9 44.5
07:45 1019 30.09 849 25.07 14.3 57.7 60 6.6 43.9
07:50 1019 30.09 849 25.07 14.7 58.4 56 6.2 43.1
07:55 1019 30.09 849 25.07 14.9 58.8 59 7.1 44.9
08:00 1019 30.09 849 25.07 14.8 58.7 57 6.4 43.6
08:05 1019 30.09 849 25.07 15 59 57 6.6 43.9
08:10 1020 30.12 849 25.07 15 59.1 58 7 44.6
08:15 1020 30.12 849 25.07 15.3 59.5 56 6.6 43.8
08:20 1020 30.12 849 25.07 15.4 59.6 55 6.5 43.7
08:25 1020 30.12 849 25.07 15.2 59.4 55 6.4 43.5
08:30 1020 30.12 849 25.07 14.8 58.7 57 6.6 43.8
08:35 1020 30.12 849 25.07 14.8 58.7 55 6 42.8
08:40 1020 30.12 849 25.07 15 58.9 57 6.6 44
08:45 1020 30.12 849 25.07 15.2 59.4 55 6.2 43.2
08:50 1020 30.12 849 25.07 16 60.8 52 6.2 43.2
08:55 1020 30.12 849 25.07 16.2 61.1 51 6.1 42.9
09:00 1020 30.12 849 25.07 16.1 61 49 5.5 41.8
09:05 1020 30.12 849 25.07 16 60.8 49 5.5 42
09:10 1020 30.12 849 25.07 16.4 61.4 48 5.6 42
09:15 1020 30.12 849 25.07 16.5 61.6 51 6.4 43.6
09:20 1020 30.12 849 25.07 16.4 61.5 49 5.7 42.2
09:25 1020 30.12 849 25.07 16.3 61.3 50 6 42.8
09:30 1020 30.12 849 25.07 16.3 61.3 49 5.6 42.1
09:35 1020 30.12 849 25.07 16.1 61 50 5.6 42.1
09:40 1020 30.12 849 25.07 15.1 59.2 53 5.7 42.2
09:45 1020 30.12 849 25.07 16.3 61.4 50 6.1 43
09:50 1020 30.12 849 25.07 16.8 62.2 48 5.8 42.4
09:55 1020 30.12 849 25.07 17 62.5 45 4.9 40.8
10:00 1020 30.12 849 25.07 17 62.6 46 5.3 41.5
10:05 1020 30.12 849 25.07 17.2 63 45 5.3 41.6
10:10 1020 30.12 849 25.07 17.1 62.7 46 5.5 41.8
10:15 1019 30.09 849 25.07 17.1 62.8 45 5.1 41.1
10:20 1019 30.09 849 25.07 17 62.7 44 4.7 40.4
10:25 1019 30.09 849 25.07 17.1 62.8 45 5.3 41.5
10:30 1019 30.09 849 25.07 17.1 62.8 44 4.9 40.9
10:35 1019 30.09 849 25.07 17.4 63.3 44 5.1 41.1
10:40 1019 30.09 849 25.07 17.1 62.8 46 5.4 41.7
10:45 1019 30.09 849 25.07 17.5 63.4 43 4.8 40.6
10:50 1019 30.09 849 25.07 18.2 64.8 40 4.7 40.4
10:55 1019 30.09 849 25.07 18 64.5 42 5 41.1
11:00 1019 30.09 849 25.07 18.2 64.8 40 4.6 40.4
11:05 1019 30.09 849 25.07 18.6 65.5 40 4.9 40.7
11:10 1019 30.09 849 25.07 18.1 64.6 40 4.5 40
11:15 1019 30.09 848 25.04 17.9 64.3 40 4.3 39.8
11:20 1019 30.09 848 25.04 18.4 65 39 4.1 39.5
11:25 1019 30.09 848 25.04 18.3 65 40 4.6 40.3
11:30 1019 30.09 848 25.04 18.3 65 40 4.5 40.1
11:35 1019 30.09 848 25.04 18.9 66 36 3.6 38.5
11:40 1019 30.09 848 25.04 18.8 65.9 38 4.4 39.9
11:45 1019 30.09 848 25.04 18.8 65.9 38 4.2 39.6
11:50 1019 30.09 848 25.04 19.3 66.7 37 4.6 40.2
11:55 1019 30.09 848 25.04 19.7 67.4 36 4.4 39.9
12:00 1019 30.09 848 25.04 19 66.2 37 4.3 39.7
12:05 1019 30.09 848 25.04 19.1 66.3 36 3.8 38.8
12:10 1019 30.09 848 25.04 19.2 66.5 37 4.2 39.6
12:15 1019 30.09 848 25.04 19.1 66.4 38 4.5 40.1
12:20 1019 30.09 848 25.04 18.8 65.9 38 4.5 40.1
12:25 1019 30.09 848 25.04 18.5 65.3 37 3.6 38.6
12:30 1019 30.09 848 25.04 18.9 66 35 3.4 38.2
12:35 1019 30.09 848 25.04 19.7 67.4 34 3.6 38.6
12:40 1019 30.09 848 25.04 19.8 67.7 32 2.6 36.7
12:45 1019 30.09 848 25.04 19.6 67.3 32 2.8 37.1
12:50 1019 30.09 848 25.04 19.7 67.5 32 2.8 37.1
12:55 1019 30.09 848 25.04 19.8 67.6 31 2.5 36.5
13:00 1019 30.09 848 25.04 20.2 68.4 29 2 35.6
13:05 1019 30.09 848 25.04 20.2 68.3 30 2.4 36.3
13:10 1018 30.06 848 25.04 20.1 68.2 28 1.3 34.4
13:15 1018 30.06 848 25.04 19.9 67.8 28 1.1 34
13:20 1018 30.06 847 25.01 20.1 68.3 28 1.2 34.2
13:25 1018 30.06 847 25.01 19.9 67.9 28 0.9 33.6
13:30 1018 30.06 847 25.01 20 67.9 28 1 33.8
13:35 1018 30.06 847 25.01 20 68.1 27 0.6 33
13:40 1018 30.06 847 25.01 20 68 29 1.7 35
13:45 1018 30.06 847 25.01 20.3 68.5 28 1.3 34.3
13:50 1018 30.06 847 25.01 20.5 68.9 27 0.8 33.4
13:55 1018 30.06 847 25.01 21.3 70.4 26 1.2 34.1
14:00 1018 30.06 847 25.01 21.7 71.1 27 1.9 35.3
14:05 1018 30.06 847 25.01 21.5 70.7 27 2 35.5
14:10 1018 30.06 847 25.01 21.3 70.3 25 0.6 33.1
14:15 1018 30.06 847 25.01 21.5 70.6 26 1.2 34.1
14:20 1018 30.06 847 25.01 22.2 72 25 1.6 35
14:25 1018 30.06 847 25.01 22.1 71.7 24 0.5 32.9
14:30 1018 30.06 847 25.01 21.6 70.9 25 1.2 34.1
14:35 1018 30.06 847 25.01 21.4 70.5 26 1.1 34
14:40 1018 30.06 847 25.01 21.8 71.3 26 1.6 34.9
14:45 1018 30.06 847 25.01 22.1 71.7 23 0 32.1
14:50 1018 30.06 847 25.01 22.3 72.1 24 0.7 33.2
14:55 1018 30.06 847 25.01 22.2 72 22 -0.2 31.6
15:00 1018 30.06 847 25.01 22.2 71.9 21 -0.7 30.7
15:05 1018 30.06 847 25.01 22.4 72.3 22 -0.3 31.4
15:10 1018 30.06 847 25.01 21.8 71.2 24 0.3 32.6
15:15 1018 30.06 847 25.01 21.3 70.3 24 -0.1 31.9
15:20 1018 30.06 847 25.01 21.6 70.9 23 -0.4 31.2
15:25 1018 30.06 847 25.01 21.7 71 22 -0.5 31.1
15:30 1018 30.06 847 25.01 21.6 70.9 22 -0.7 30.8
15:35 1018 30.06 847 25.01 21.8 71.3 21 -1.3 29.7
15:40 1018 30.06 847 25.01 22.6 72.6 21 -0.6 31
15:45 1018 30.06 847 25.01 22.2 71.9 21 -0.8 30.6
15:50 1018 30.06 847 25.01 22.6 72.6 21 -1 30.3
15:55 1018 30.06 847 25.01 22.7 72.8 20 -1.4 29.4
16:00 1018 30.06 847 25.01 22.3 72.1 22 -0.2 31.7
16:05 1018 30.06 847 25.01 22.1 71.8 21 -1 30.2
16:10 1018 30.06 847 25.01 22.6 72.6 21 -0.7 30.7
16:15 1018 30.06 847 25.01 22.3 72.2 20 -1.7 29
16:20 1018 30.06 847 25.01 22.9 73.2 20 -1 30.1
16:25 1018 30.06 847 25.01 22.9 73.3 20 -0.7 30.7
16:30 1018 30.06 847 25.01 22.8 73.1 20 -1.3 29.7
16:35 1018 30.06 847 25.01 22.9 73.2 18 -2.6 27.4
16:40 1018 30.06 847 25.01 22.6 72.7 20 -1.2 29.8
16:45 1017 30.03 847 25.01 22.7 72.8 21 -0.7 30.8
16:50 1017 30.03 847 25.01 23.2 73.7 20 -0.8 30.5
16:55 1017 30.03 847 25.01 23.4 74.2 20 -0.9 30.4
17:00 1017 30.03 847 25.01 23 73.3 18 -2.4 27.8
17:05 1017 30.03 847 25.01 22.8 73.1 18 -2.9 26.9
17:10 1017 30.03 847 25.01 22.9 73.3 17 -3.1 26.4
17:15 1017 30.03 847 25.01 22.7 72.8 18 -2.9 26.8
17:20 1017 30.03 847 25.01 22.5 72.6 19 -2.3 27.8
17:25 1017 30.03 847 25.01 21.9 71.4 21 -1.5 29.4
17:30 1018 30.06 847 25.01 21.4 70.4 20 -2.6 27.4
17:35 1018 30.06 847 25.01 21.7 71.1 18 -3.2 26.2
17:40 1017 30.03 847 25.01 22.2 71.9 16 -5 23.1
17:45 1017 30.03 847 25.01 22.1 71.7 16 -5.1 22.9
17:50 1017 30.03 847 25.01 22.2 71.9 16 -4.5 24
17:55 1017 30.03 847 25.01 22.2 71.9 17 -3.7 25.4
18:00 1017 30.03 847 25.01 22 71.5 17 -4.2 24.4
18:05 1017 30.03 847 25.01 21.9 71.4 15 -5.5 22.1
18:10 1017 30.03 847 25.01 21.6 71 16 -5.1 22.8
18:15 1017 30.03 847 25.01 21.8 71.2 16 -5.4 22.3
18:20 1018 30.06 847 25.01 21.7 71.1 17 -4.6 23.7
18:25 1017 30.03 847 25.01 21.6 70.8 17 -4.1 24.7
18:30 1017 30.03 847 25.01 21.7 71 19 -2.8 26.9
18:35 1017 30.03 847 25.01 21.4 70.5 21 -1.6 29.1
18:40 1018 30.06 847 25.01 21.4 70.5 21 -1.7 28.9
18:45 1018 30.06 847 25.01 21.4 70.6 21 -1.3 29.6
18:50 1018 30.06 847 25.01 21.5 70.6 22 -1.2 29.9
18:55 1018 30.06 847 25.01 21.3 70.4 22 -0.9 30.5
19:00 1018 30.06 847 25.01 21.1 70 23 -0.5 31.1
19:05 1018 30.06 847 25.01 21.3 70.3 23 -0.4 31.2
19:10 1018 30.06 847 25.01 21.2 70.2 23 -0.3 31.4
19:15 1018 30.06 847 25.01 21.1 70 23 -0.8 30.6
19:20 1018 30.06 847 25.01 20.9 69.6 24 -0.5 31.1
19:25 1018 30.06 847 25.01 21 69.8 24 -0.4 31.2
19:30 1018 30.06 847 25.01 21 69.7 24 0.1 32.1
19:35 1018 30.06 847 25.01 20.4 68.7 26 0.3 32.5
19:40 1018 30.06 847 25.01 19.8 67.6 26 -0.3 31.4
19:45 1018 30.06 847 25.01 19.8 67.6 25 -0.4 31.3
19:50 1018 30.06 847 25.01 19.9 67.8 25 -0.5 31.1
19:55 1018 30.06 847 25.01 19.7 67.5 24 -1.2 29.8
20:00 1018 30.06 847 25.01 19.4 66.9 26 -0.5 31.1
20:05 1018 30.06 848 25.04 19.3 66.7 26 -0.5 31
20:10 1018 30.06 848 25.04 19.3 66.7 25 -1 30.2
20:15 1018 30.06 848 25.04 19.1 66.4 26 -0.8 30.5
20:20 1018 30.06 848 25.04 19 66.1 26 -0.6 30.9
20:25 1018 30.06 848 25.04 18.8 65.8 27 -0.4 31.2
20:30 1019 30.09 848 25.04 18.7 65.6 27 -0.4 31.2
20:35 1019 30.09 848 25.04 18.7 65.6 27 -0.3 31.4
20:40 1019 30.09 848 25.04 18.6 65.5 28 -0 32
20:45 1019 30.09 848 25.04 18.5 65.2 28 -0.2 31.7
20:50 1019 30.09 848 25.04 18.3 64.9 29 0.1 32.1
20:55 1019 30.09 848 25.04 18.2 64.8 30 0.5 32.9
21:00 1019 30.09 848 25.04 18.1 64.5 31 0.9 33.6
21:05 1019 30.09 848 25.04 17.8 64.1 32 0.8 33.5
21:10 1019 30.09 848 25.04 17.4 63.3 33 1 33.7
21:15 1019 30.09 848 25.04 17 62.5 34 1.1 34
21:20 1019 30.09 848 25.04 16.4 61.6 35 0.9 33.6
21:25 1019 30.09 848 25.04 16.2 61.2 34 0.5 32.8
21:30 1019 30.09 848 25.04 16.1 61 34 0.4 32.8
21:35 1019 30.09 848 25.04 16 60.7 35 0.6 33.1
21:40 1019 30.09 848 25.04 15.9 60.6 35 0.5 32.8
21:45 1019 30.09 849 25.07 15.6 60.1 35 0.2 32.4
21:50 1019 30.09 849 25.07 15.6 60 33 -0.4 31.4
21:55 1020 30.12 849 25.07 15.7 60.3 33 -0.4 31.3
22:00 1020 30.12 849 25.07 15.7 60.3 33 -0.5 31
22:05 1020 30.12 849 25.07 15.8 60.4 32 -0.7 30.8
22:10 1020 30.12 849 25.07 15.7 60.3 33 -0.5 31
22:15 1020 30.12 849 25.07 15.6 60.1 33 -0.4 31.2
22:20 1020 30.12 849 25.07 15.6 60.1 33 -0.4 31.3
22:25 1020 30.12 849 25.07 15.5 59.8 34 -0.4 31.2
22:30 1020 30.12 849 25.07 15.3 59.6 34 -0.5 31.1
22:35 1020 30.12 850 25.1 15.2 59.4 35 -0.2 31.7
22:40 1020 30.12 850 25.1 15.2 59.3 34 -0.5 31.2
22:45 1020 30.12 850 25.1 15 58.9 34 -0.5 31.1
22:50 1020 30.12 850 25.1 14.9 58.8 34 -0.6 30.9
22:55 1021 30.15 850 25.1 14.8 58.6 34 -0.7 30.7
23:00 1021 30.15 850 25.1 14.8 58.6 35 -0.3 31.4
23:05 1021 30.15 850 25.1 14.7 58.5 35 -0.5 31.1
23:10 1021 30.15 850 25.1 14.7 58.4 37 0.3 32.6
23:15 1021 30.15 850 25.1 14 57.3 42 1.6 34.8
23:20 1021 30.15 850 25.1 13 55.4 44 1.3 34.3
23:25 1021 30.15 850 25.1 12.6 54.6 46 1.3 34.3
23:30 1021 30.15 850 25.1 12.4 54.2 47 1.4 34.5
23:35 1021 30.15 850 25.1 12 53.6 50 2.1 35.7
23:40 1021 30.15 850 25.1 11.8 53.3 50 1.8 35.3
23:45 1021 30.15 850 25.1 11.8 53.2 51 2.1 35.8
23:50 1021 30.15 850 25.1 11.6 52.8 51 1.9 35.5
23:55 1021 30.15 850 25.1 11.5 52.6 50 1.6 34.9
24:00 1021 30.15 850 25.1 11.3 52.4 52 1.9 35.4